Plymouth, California
Current Conditions -  °F | °C
As of 10:35 AM on Saturday 25 Oct 2014 (Local Time) from KPVF Reporting Station
Overcast Overcast  
Wind Chill: 50°   Ceiling: 200
Heat Index: 50°   Visibility: 0.5mi
Dew Point: 50°   Wind: 3mph
Humidity: 100%   Direction: 250°WSW
Pressure: 30.11"   Gusts: NA
Location:  38.48°N, 120.84°W
Report Text: KPVF 251735Z AUTO 25003KT 1/2SM OVC002 10/10 A3011 RMK AO1 P0009
Loading
Personal Weather Stations






























Interactive Weather Map
Tropical Storm Tracking
New forecast layout! Learn more

10-Day Weather Forecast

Advertisements
Track Severe Weather on mobile